OISL  Lar  Airport

Lar, Iran

Add Bookmark
ICAO OISL
IATA LRR
Type Airport
Status Operational
Latitude
27° 40' 28" N
27.674700
Longitude
54° 22' 59" E
54.383301
Local (DST + 5) UTC (GMT + 4)
Aug 31, 2015 10:13 Aug 31, 2015 17:43
Sunrise-Sunset Local UTC
Begin Civil Twilight 06:05 01:35
Sunrise 06:29 01:59
Sunset 07:16 14:46
End Civil Twilight 07:39 15:09
VFR
VFR
MVFR
MVFR
IFR
IFR
LIFR
LIFR
Unknown
Unavailable

Current Weather

METAR Observed VFR
OISL 311700Z 22008KT CAVOK 37/13 Q1007 Mon, Aug 31, 2015 @ 17:00 UTC
(43 Minutes ago)
Visual Flight Rules
Wind Visibility Conditions
220° at 8 knots (15 kph) 10 km or more
  • No significant weather
Temperatures Readings Precipitation
Current Temp
37°C
99°F
Dewpoint
13°C
55°F
Humidity 24%
Altimeter 29.73" Hg
Sea Level Pressure 1,007 mb
Field Elevation
805 m
2,641 ft
None Recorded
-
-

CheckWX.com is intended as a tool to help pilots better visualize weather data. It is not intended as a substitute for an official weather briefing obtained from a Flight Service Station. CheckWX.com does not meet the FAA requirements for an official pre-flight weather briefing. Therefore, it's important that pilots still call and obtain an official FSS pre-flight weather briefing.

© 2007-2015 CheckWX.com
17:43:57 UTC